createdAt,value
2023-09-20T00:00:46.193Z,94.40
2023-09-20T00:03:17.472Z,88.01
2023-09-20T00:05:51.825Z,87.53
2023-09-20T00:08:23.962Z,89.71
2023-09-20T00:10:54.497Z,86.44
2023-09-20T00:13:24.992Z,86.85
2023-09-20T00:15:57.835Z,85.88
2023-09-20T00:18:28.243Z,87.87
2023-09-20T00:21:03.189Z,88.31
2023-09-20T00:23:35.456Z,89.61
2023-09-20T00:26:06.186Z,85.11
2023-09-20T00:28:37.830Z,85.12
2023-09-20T00:31:11.096Z,83.48
2023-09-20T00:33:41.629Z,83.06
2023-09-20T00:36:12.584Z,82.07
2023-09-20T00:38:44.632Z,79.21
2023-09-20T00:41:15.223Z,78.40
2023-09-20T00:43:45.852Z,77.00
2023-09-20T00:46:17.604Z,79.31
2023-09-20T00:48:48.836Z,80.21
2023-09-20T00:51:19.444Z,79.57
2023-09-20T00:53:52.164Z,82.16
2023-09-20T00:56:23.205Z,82.12
2023-09-20T00:58:55.706Z,83.38
2023-09-20T01:01:28.878Z,85.13
2023-09-20T01:03:59.891Z,83.69
2023-09-20T01:06:30.823Z,78.15
2023-09-20T01:09:03.083Z,76.47
2023-09-20T01:11:34.434Z,75.78
2023-09-20T01:14:05.540Z,75.21
2023-09-20T01:16:36.903Z,77.27
2023-09-20T01:19:08.475Z,77.49
2023-09-20T01:21:46.345Z,77.27
2023-09-20T01:24:19.298Z,73.41
2023-09-20T01:26:52.738Z,75.31
2023-09-20T01:29:23.294Z,74.09
2023-09-20T01:31:54.096Z,70.55
2023-09-20T01:34:25.385Z,72.87
2023-09-20T01:36:57.535Z,73.65
2023-09-20T01:39:28.320Z,73.91
2023-09-20T01:42:00.438Z,75.54
2023-09-20T01:44:31.375Z,78.96
2023-09-20T01:47:06.596Z,80.42
2023-09-20T01:49:37.762Z,83.67
2023-09-20T01:52:10.933Z,86.92
2023-09-20T01:54:42.511Z,90.73
2023-09-20T01:57:13.303Z,91.69
2023-09-20T01:59:43.783Z,91.78
2023-09-20T02:02:14.560Z,93.10
2023-09-20T02:04:45.225Z,90.92
2023-09-20T02:07:17.443Z,91.47
2023-09-20T02:09:48.157Z,90.58
2023-09-20T02:12:19.928Z,90.46
2023-09-20T02:14:50.585Z,89.39
2023-09-20T02:17:21.161Z,81.64
2023-09-20T02:19:52.128Z,77.79
2023-09-20T02:22:24.467Z,76.26
2023-09-20T02:24:55.064Z,77.08
2023-09-20T02:27:25.916Z,73.77
2023-09-20T02:29:56.595Z,74.17
2023-09-20T02:32:27.070Z,72.01
2023-09-20T02:34:58.218Z,69.08
2023-09-20T02:37:30.649Z,71.31
2023-09-20T02:40:01.275Z,67.61
2023-09-20T02:42:32.404Z,65.93
2023-09-20T02:45:03.387Z,66.91
2023-09-20T02:47:33.939Z,67.84
2023-09-20T02:50:07.482Z,67.67
2023-09-20T02:52:39.879Z,70.34
2023-09-20T02:55:12.615Z,69.04
2023-09-20T02:57:44.645Z,68.03
2023-09-20T03:00:17.803Z,68.00
2023-09-20T03:02:49.900Z,65.29
2023-09-20T03:05:21.767Z,65.08
2023-09-20T03:07:55.384Z,67.13
2023-09-20T03:10:29.394Z,67.37
2023-09-20T03:13:01.771Z,70.11
2023-09-20T03:15:34.437Z,70.82
2023-09-20T03:18:11.293Z,70.80
2023-09-20T03:20:45.853Z,71.41
2023-09-20T03:23:18.515Z,72.97
2023-09-20T03:25:49.214Z,74.56
2023-09-20T03:28:21.777Z,76.21
2023-09-20T03:30:53.104Z,71.99
2023-09-20T03:33:23.692Z,73.35
2023-09-20T03:35:54.789Z,71.89
2023-09-20T03:38:29.558Z,69.97
2023-09-20T03:41:00.268Z,67.27
2023-09-20T03:43:31.049Z,68.27
2023-09-20T03:46:03.496Z,70.42
2023-09-20T03:48:34.000Z,66.12
2023-09-20T03:51:06.448Z,66.18
2023-09-20T03:53:39.689Z,68.49
2023-09-20T03:56:11.159Z,68.53
2023-09-20T03:58:42.312Z,61.41
2023-09-20T04:01:13.883Z,60.21
2023-09-20T04:03:44.668Z,61.37
2023-09-20T04:06:15.303Z,60.71
2023-09-20T04:08:47.529Z,59.94
2023-09-20T04:11:18.205Z,61.80
2023-09-20T04:13:48.650Z,61.97
2023-09-20T04:16:19.267Z,61.42
2023-09-20T04:18:50.791Z,63.79
2023-09-20T04:21:21.346Z,60.86
2023-09-20T04:23:53.359Z,59.13
2023-09-20T04:26:23.862Z,60.58
2023-09-20T04:28:54.279Z,63.95
2023-09-20T04:31:25.388Z,67.95
2023-09-20T04:33:56.210Z,68.53
2023-09-20T04:36:26.671Z,68.44
2023-09-20T04:38:59.309Z,68.10
2023-09-20T04:41:29.967Z,68.85
2023-09-20T04:44:00.646Z,65.89
2023-09-20T04:46:31.172Z,67.13
2023-09-20T04:49:01.689Z,62.31
2023-09-20T04:51:32.825Z,62.46
2023-09-20T04:54:06.071Z,62.81
2023-09-20T04:56:36.795Z,62.08
2023-09-20T04:59:10.466Z,66.13
2023-09-20T05:01:41.097Z,66.05
2023-09-20T05:04:15.409Z,63.73
2023-09-20T05:06:47.926Z,62.55
2023-09-20T05:09:20.149Z,64.39
2023-09-20T05:11:51.530Z,64.46
2023-09-20T05:14:22.144Z,64.48
2023-09-20T05:16:52.663Z,66.58
2023-09-20T05:19:24.315Z,75.39
2023-09-20T05:21:54.907Z,78.67
2023-09-20T05:24:27.822Z,80.92
2023-09-20T05:26:58.598Z,84.25
2023-09-20T05:29:29.296Z,87.39
2023-09-20T05:31:59.890Z,89.79
2023-09-20T05:34:30.500Z,90.41
2023-09-20T05:37:01.188Z,90.97
2023-09-20T05:39:34.085Z,92.82
2023-09-20T05:42:05.256Z,88.23
2023-09-20T05:44:36.003Z,88.21
2023-09-20T05:47:07.310Z,87.24
2023-09-20T05:49:37.921Z,85.23
2023-09-20T05:52:09.168Z,86.15
2023-09-20T05:54:44.906Z,86.48
2023-09-20T05:57:16.392Z,83.86
2023-09-20T05:59:47.018Z,82.80
2023-09-20T06:02:17.671Z,82.82
2023-09-20T06:04:49.124Z,83.13
2023-09-20T06:07:19.776Z,82.21
2023-09-20T06:09:52.121Z,79.93
2023-09-20T06:12:22.704Z,80.46
2023-09-20T06:14:53.520Z,81.25
2023-09-20T06:17:24.303Z,81.08
2023-09-20T06:19:58.975Z,83.11
2023-09-20T06:22:32.105Z,82.28
2023-09-20T06:25:06.820Z,81.66
2023-09-20T06:27:37.826Z,82.81
2023-09-20T06:30:14.503Z,77.89
2023-09-20T06:32:46.251Z,77.81
2023-09-20T06:35:17.791Z,76.52
2023-09-20T06:37:49.711Z,76.68
2023-09-20T06:40:25.191Z,78.01
2023-09-20T06:42:55.872Z,77.50
2023-09-20T06:45:26.463Z,77.65
2023-09-20T06:47:57.980Z,78.93
2023-09-20T06:50:28.884Z,78.79
2023-09-20T06:52:59.986Z,79.64
2023-09-20T06:55:32.474Z,80.17
2023-09-20T07:00:39.725Z,80.07
2023-09-20T07:03:10.411Z,80.92
2023-09-20T07:05:40.991Z,80.07
2023-09-20T07:08:11.881Z,79.84
2023-09-20T07:10:45.440Z,81.69
2023-09-20T07:13:19.848Z,82.16
2023-09-20T07:15:51.069Z,84.49
2023-09-20T07:18:21.593Z,86.51
2023-09-20T07:20:56.697Z,88.47
2023-09-20T07:23:27.278Z,90.07
2023-09-20T07:25:59.490Z,87.84
2023-09-20T07:28:30.075Z,86.33
2023-09-20T07:31:00.876Z,85.96
2023-09-20T07:33:40.623Z,83.66
2023-09-20T07:36:11.787Z,84.06
2023-09-20T07:38:43.378Z,85.83
2023-09-20T07:41:16.490Z,85.44
2023-09-20T07:43:49.262Z,86.23
2023-09-20T07:46:22.417Z,86.77
2023-09-20T07:48:53.068Z,85.27
2023-09-20T07:51:27.863Z,86.02
2023-09-20T07:53:58.882Z,85.98
2023-09-20T07:56:31.107Z,86.33
2023-09-20T07:59:02.501Z,87.03
2023-09-20T08:01:33.217Z,87.28
2023-09-20T08:04:08.311Z,87.93
2023-09-20T08:06:38.979Z,88.30
2023-09-20T08:09:09.768Z,88.85
2023-09-20T08:11:42.105Z,89.47
2023-09-20T08:14:14.140Z,89.91
2023-09-20T08:17:01.354Z,91.15
2023-09-20T08:19:33.374Z,92.47
2023-09-20T08:22:03.968Z,93.30
2023-09-20T08:24:51.363Z,93.79
2023-09-20T08:27:40.267Z,93.73
2023-09-20T08:30:28.767Z,94.32
2023-09-20T08:33:16.033Z,95.28
2023-09-20T08:36:03.268Z,95.43
2023-09-20T08:38:50.423Z,95.72
2023-09-20T08:41:38.081Z,96.34
2023-09-20T08:44:27.278Z,96.38
2023-09-20T08:47:16.140Z,97.08
2023-09-20T08:50:07.031Z,98.21
2023-09-20T08:53:02.165Z,98.13
2023-09-20T08:55:50.361Z,98.54
2023-09-20T08:58:38.028Z,99.18
2023-09-20T09:01:19.512Z,99.59
2023-09-20T09:03:59.806Z,98.96
2023-09-20T09:10:37.697Z,100.00
2023-09-20T09:13:09.620Z,100.00
2023-09-20T09:15:41.651Z,100.00
2023-09-20T09:18:22.353Z,100.00
2023-09-20T09:20:56.000Z,100.00
2023-09-20T09:23:38.326Z,100.00
2023-09-20T09:26:10.131Z,100.00
2023-09-20T09:28:42.533Z,100.00
2023-09-20T09:31:14.343Z,100.00
2023-09-20T09:33:49.125Z,100.00
2023-09-20T09:36:21.609Z,100.00
2023-09-20T09:38:53.360Z,100.00
2023-09-20T09:41:25.050Z,100.00
2023-09-20T09:44:01.800Z,100.00
2023-09-20T09:46:35.112Z,100.00
2023-09-20T09:49:12.957Z,100.00
2023-09-20T09:51:47.475Z,100.00
2023-09-20T09:54:20.482Z,100.00
2023-09-20T09:56:52.838Z,100.00
2023-09-20T09:59:25.502Z,100.00
2023-09-20T10:01:59.992Z,100.00
2023-09-20T10:04:34.914Z,100.00
2023-09-20T10:07:12.943Z,100.00
2023-09-20T10:09:51.242Z,100.00
2023-09-20T10:12:26.028Z,100.00
2023-09-20T10:14:58.537Z,100.00
2023-09-20T10:17:32.893Z,100.00
2023-09-20T10:20:09.515Z,100.00
2023-09-20T10:22:43.139Z,100.00
2023-09-20T10:25:35.338Z,100.00
2023-09-20T10:28:08.618Z,100.00
2023-09-20T10:31:05.194Z,100.00
2023-09-20T10:33:49.358Z,100.00
2023-09-20T10:36:31.545Z,100.00
2023-09-20T10:39:25.476Z,100.00
2023-09-20T10:41:59.077Z,100.00
2023-09-20T10:44:33.444Z,100.00
2023-09-20T10:47:09.107Z,100.00
2023-09-20T10:49:46.003Z,100.00
2023-09-20T10:53:03.607Z,100.00
2023-09-20T10:55:43.476Z,100.00
2023-09-20T10:58:17.363Z,100.00
2023-09-20T11:00:52.882Z,100.00
2023-09-20T11:03:24.978Z,100.00
2023-09-20T11:05:56.649Z,100.00
2023-09-20T11:08:30.405Z,100.00
2023-09-20T11:11:03.024Z,100.00
2023-09-20T11:13:34.562Z,100.00
2023-09-20T11:16:06.703Z,100.00
2023-09-20T11:18:41.091Z,100.00
2023-09-20T11:21:13.578Z,100.00
2023-09-20T11:23:49.013Z,100.00
2023-09-20T11:26:31.021Z,100.00
2023-09-20T11:29:03.091Z,100.00
2023-09-20T11:31:37.722Z,100.00
2023-09-20T11:34:10.209Z,100.00
2023-09-20T11:36:45.024Z,100.00
2023-09-20T11:39:19.864Z,100.00
2023-09-20T11:41:52.219Z,100.00
2023-09-20T11:44:27.040Z,100.00
2023-09-20T11:46:59.836Z,100.00
2023-09-20T11:49:31.786Z,100.00
2023-09-20T11:52:05.338Z,100.00
2023-09-20T11:54:40.721Z,100.00
2023-09-20T11:57:12.171Z,100.00
2023-09-20T11:59:48.263Z,100.00
2023-09-20T12:02:19.840Z,100.00
2023-09-20T12:04:53.863Z,100.00
2023-09-20T12:07:25.559Z,100.00
2023-09-20T12:09:59.364Z,100.00
2023-09-20T12:12:33.512Z,100.00
2023-09-20T12:15:06.286Z,100.00
2023-09-20T12:17:38.062Z,100.00
2023-09-20T12:20:11.115Z,100.00
2023-09-20T12:22:42.735Z,100.00
2023-09-20T12:25:17.927Z,100.00
2023-09-20T12:27:50.001Z,100.00
2023-09-20T12:30:21.669Z,100.00
2023-09-20T12:32:53.264Z,100.00
2023-09-20T12:35:26.061Z,100.00
2023-09-20T12:37:58.329Z,100.00
2023-09-20T12:40:31.524Z,100.00
2023-09-20T12:43:05.706Z,100.00
2023-09-20T12:45:37.306Z,100.00
2023-09-20T12:48:41.563Z,100.00
2023-09-20T12:51:12.400Z,100.00
2023-09-20T12:53:49.560Z,100.00
2023-09-20T12:56:35.715Z,100.00
2023-09-20T12:59:13.346Z,100.00
2023-09-20T13:01:53.246Z,100.00
2023-09-20T13:04:27.172Z,100.00
2023-09-20T13:07:03.709Z,100.00
2023-09-20T13:09:37.310Z,100.00
2023-09-20T14:04:22.085Z,100.00
2023-09-20T14:23:17.984Z,100.00
2023-09-20T14:25:54.459Z,100.00
2023-09-20T14:28:25.150Z,100.00
2023-09-20T14:30:56.436Z,100.00
2023-09-20T14:33:27.723Z,100.00
2023-09-20T14:36:02.737Z,100.00
2023-09-20T14:38:38.746Z,100.00
2023-09-20T14:41:10.576Z,100.00
2023-09-20T14:43:41.547Z,100.00
2023-09-20T14:46:12.468Z,100.00
2023-09-20T14:48:47.475Z,100.00
2023-09-20T14:51:21.940Z,100.00
2023-09-20T14:54:00.546Z,100.00
2023-09-20T14:56:34.945Z,100.00
2023-09-20T14:59:06.153Z,100.00
2023-09-20T15:01:39.864Z,100.00
2023-09-20T15:04:18.026Z,100.00
2023-09-20T15:09:57.341Z,100.00
2023-09-20T15:12:33.733Z,100.00
2023-09-20T15:15:07.473Z,100.00
2023-09-20T15:17:39.572Z,100.00
2023-09-20T15:20:17.794Z,100.00
2023-09-20T15:22:50.023Z,100.00
2023-09-20T15:25:27.428Z,100.00
2023-09-20T15:27:58.746Z,100.00
2023-09-20T15:30:33.525Z,100.00
2023-09-20T15:33:06.725Z,100.00
2023-09-20T15:35:42.905Z,100.00
2023-09-20T15:38:16.050Z,100.00
2023-09-20T15:40:52.464Z,100.00
2023-09-20T15:43:28.714Z,100.00
2023-09-20T15:45:59.549Z,100.00
2023-09-20T15:48:35.677Z,100.00
2023-09-20T15:51:11.776Z,100.00
2023-09-20T15:53:44.910Z,100.00
2023-09-20T15:56:18.029Z,100.00
2023-09-20T15:58:48.816Z,100.00
2023-09-20T16:01:21.462Z,100.00
2023-09-20T16:03:53.724Z,100.00
2023-09-20T16:06:27.986Z,100.00
2023-09-20T16:09:01.935Z,100.00
2023-09-20T16:11:46.417Z,100.00
2023-09-20T16:14:18.867Z,100.00
2023-09-20T16:16:53.239Z,100.00
2023-09-20T16:19:26.677Z,100.00
2023-09-20T16:22:00.796Z,100.00
2023-09-20T16:24:34.104Z,100.00
2023-09-20T16:27:09.150Z,100.00
2023-09-20T16:29:40.128Z,100.00
2023-09-20T16:32:16.125Z,100.00
2023-09-20T16:34:47.718Z,100.00
2023-09-20T16:37:23.694Z,100.00
2023-09-20T16:39:54.899Z,100.00
2023-09-20T16:42:34.577Z,100.00
2023-09-20T16:45:07.351Z,100.00
2023-09-20T16:47:40.823Z,100.00
2023-09-20T16:50:16.092Z,100.00
2023-09-20T16:52:48.153Z,100.00
2023-09-20T16:55:43.035Z,100.00
2023-09-20T16:58:16.441Z,100.00
2023-09-20T17:00:49.963Z,100.00
2023-09-20T17:03:26.361Z,100.00
2023-09-20T17:05:57.472Z,100.00
2023-09-20T17:08:30.824Z,100.00
2023-09-20T17:11:01.890Z,100.00
2023-09-20T17:13:41.626Z,100.00
2023-09-20T17:16:14.898Z,100.00
2023-09-20T17:18:47.639Z,100.00
2023-09-20T17:21:22.718Z,100.00
2023-09-20T17:23:58.228Z,100.00
2023-09-20T17:26:31.888Z,100.00
2023-09-20T17:29:04.374Z,100.00
2023-09-20T17:31:36.973Z,100.00
2023-09-20T17:34:09.139Z,100.00
2023-09-20T17:36:56.585Z,100.00
2023-09-20T17:39:36.709Z,100.00
2023-09-20T17:42:16.657Z,100.00
2023-09-20T17:44:55.210Z,100.00
2023-09-20T17:47:34.387Z,100.00
2023-09-20T17:50:05.233Z,100.00
2023-09-20T17:52:36.838Z,100.00
2023-09-20T17:55:11.789Z,100.00
2023-09-20T17:57:42.639Z,100.00
2023-09-20T18:00:19.911Z,100.00
2023-09-20T18:02:53.791Z,100.00
2023-09-20T18:05:26.936Z,100.00
2023-09-20T18:08:03.037Z,100.00
2023-09-20T18:10:37.101Z,100.00
2023-09-20T18:13:14.422Z,100.00
2023-09-20T18:15:50.391Z,100.00
2023-09-20T18:18:25.406Z,100.00
2023-09-20T18:21:02.437Z,100.00
2023-09-20T18:23:35.131Z,100.00
2023-09-20T18:26:10.003Z,100.00
2023-09-20T18:28:41.009Z,100.00
2023-09-20T18:31:28.962Z,100.00
2023-09-20T18:34:03.117Z,100.00
2023-09-20T18:36:39.116Z,100.00
2023-09-20T18:39:14.312Z,100.00
2023-09-20T18:41:54.046Z,100.00
2023-09-20T18:44:25.473Z,100.00
2023-09-20T18:47:00.840Z,100.00
2023-09-20T18:49:31.513Z,100.00
2023-09-20T18:52:02.737Z,100.00
2023-09-20T18:54:37.302Z,100.00
2023-09-20T18:57:10.200Z,100.00
2023-09-20T18:59:44.400Z,100.00
2023-09-20T19:02:16.658Z,100.00
2023-09-20T19:04:47.698Z,100.00
2023-09-20T19:07:19.100Z,100.00
2023-09-20T19:09:56.346Z,100.00
2023-09-20T19:12:27.003Z,100.00
2023-09-20T19:14:57.980Z,100.00
2023-09-20T19:17:34.640Z,100.00
2023-09-20T19:20:14.356Z,100.00
2023-09-20T19:22:45.791Z,100.00
2023-09-20T19:25:19.488Z,100.00
2023-09-20T19:27:50.694Z,100.00
2023-09-20T19:30:21.556Z,100.00
2023-09-20T19:32:53.950Z,100.00
2023-09-20T19:35:25.275Z,100.00
2023-09-20T19:37:58.725Z,100.00
2023-09-20T19:40:30.330Z,100.00
2023-09-20T19:43:01.251Z,100.00
2023-09-20T19:45:31.975Z,100.00
2023-09-20T19:48:05.156Z,100.00
2023-09-20T19:50:35.849Z,100.00
2023-09-20T19:53:06.727Z,100.00
2023-09-20T19:55:43.430Z,100.00
2023-09-20T19:58:14.249Z,100.00
2023-09-20T20:00:45.373Z,100.00
2023-09-20T20:03:17.830Z,100.00
2023-09-20T20:05:51.168Z,100.00
2023-09-20T20:08:23.347Z,100.00
2023-09-20T20:10:56.088Z,100.00
2023-09-20T20:13:27.011Z,100.00
2023-09-20T20:15:57.760Z,100.00
2023-09-20T20:18:30.674Z,100.00
2023-09-20T20:21:04.976Z,100.00
2023-09-20T20:23:36.123Z,100.00
2023-09-20T20:26:13.152Z,100.00
2023-09-20T20:28:44.587Z,100.00
2023-09-20T20:31:17.008Z,100.00
2023-09-20T20:33:49.843Z,100.00
2023-09-20T20:36:20.486Z,100.00
2023-09-20T20:38:51.038Z,100.00
2023-09-20T20:41:21.878Z,100.00
2023-09-20T20:43:52.450Z,100.00
2023-09-20T20:46:24.683Z,100.00
2023-09-20T20:48:59.770Z,100.00
2023-09-20T20:51:31.155Z,100.00
2023-09-20T20:54:02.330Z,100.00
2023-09-20T20:56:33.409Z,100.00
2023-09-20T20:59:03.941Z,100.00
2023-09-20T21:01:34.629Z,100.00
2023-09-20T21:04:11.349Z,100.00
2023-09-20T21:06:41.942Z,100.00
2023-09-20T21:09:12.435Z,100.00
2023-09-20T21:11:43.176Z,100.00
2023-09-20T21:14:13.777Z,100.00
2023-09-20T21:16:45.105Z,100.00
2023-09-20T21:19:18.423Z,100.00
2023-09-20T21:21:48.925Z,100.00
2023-09-20T21:24:19.486Z,100.00
2023-09-20T21:26:50.069Z,100.00
2023-09-20T21:29:20.633Z,100.00
2023-09-20T21:31:51.232Z,100.00
2023-09-20T21:34:23.501Z,100.00
2023-09-20T21:36:54.168Z,100.00
2023-09-20T21:39:24.652Z,100.00
2023-09-20T21:41:55.197Z,100.00
2023-09-20T21:44:25.903Z,100.00
2023-09-20T21:46:56.788Z,100.00
2023-09-20T21:49:29.072Z,100.00
2023-09-20T21:51:59.540Z,100.00
2023-09-20T21:54:30.022Z,100.00
2023-09-20T21:57:00.589Z,100.00
2023-09-20T21:59:31.220Z,100.00
2023-09-20T22:02:01.832Z,100.00
2023-09-20T22:04:33.973Z,100.00
2023-09-20T22:07:06.485Z,99.88
2023-09-20T22:09:38.560Z,99.28
2023-09-20T22:12:10.034Z,98.72
2023-09-20T22:14:40.895Z,97.54
2023-09-20T22:17:13.876Z,96.69
2023-09-20T22:19:47.686Z,95.17
2023-09-20T22:22:18.317Z,93.41
2023-09-20T22:24:50.103Z,91.83
2023-09-20T22:27:22.122Z,90.88
2023-09-20T22:29:52.786Z,89.63
2023-09-20T22:32:23.449Z,88.57
2023-09-20T22:34:55.605Z,87.36
2023-09-20T22:37:26.461Z,87.16
2023-09-20T22:39:59.701Z,86.62
2023-09-20T22:42:30.249Z,85.69
2023-09-20T22:45:00.922Z,84.59
2023-09-20T22:47:32.422Z,83.84
2023-09-20T22:50:06.564Z,83.10
2023-09-20T22:52:37.113Z,82.83
2023-09-20T22:55:09.146Z,82.71
2023-09-20T22:57:39.735Z,82.67
2023-09-20T23:00:12.506Z,82.02
2023-09-20T23:02:44.313Z,81.62
2023-09-20T23:05:16.694Z,81.24
2023-09-20T23:07:51.786Z,79.93
2023-09-20T23:10:25.805Z,79.96
2023-09-20T23:12:56.865Z,79.41
2023-09-20T23:15:29.568Z,79.26
2023-09-20T23:20:39.317Z,78.96
2023-09-20T23:23:12.380Z,79.24
2023-09-20T23:25:44.349Z,77.24
2023-09-20T23:28:16.409Z,74.22
2023-09-20T23:30:48.823Z,72.59
2023-09-20T23:33:23.420Z,71.97
2023-09-20T23:35:58.936Z,72.85
2023-09-20T23:38:31.914Z,69.64
2023-09-20T23:41:07.378Z,70.79
2023-09-20T23:43:37.799Z,67.00
2023-09-20T23:46:10.955Z,67.91
2023-09-20T23:48:43.396Z,65.63
2023-09-20T23:51:16.609Z,64.18
2023-09-20T23:53:47.410Z,64.00
2023-09-20T23:56:19.581Z,60.84
2023-09-20T23:58:50.757Z,58.61
